createdAt,value
2018-07-10T00:04:39.702Z,101242.00
2018-07-10T00:11:57.978Z,101242.00
2018-07-10T00:17:01.813Z,101236.00
2018-07-10T00:22:05.608Z,101235.00
2018-07-10T00:27:09.426Z,101242.00
2018-07-10T00:32:13.229Z,101240.00
2018-07-10T00:37:17.037Z,101239.00
2018-07-10T00:42:20.842Z,101238.00
2018-07-10T00:47:24.872Z,101234.00
2018-07-10T00:52:32.547Z,101239.00
2018-07-10T00:57:36.339Z,101234.00
2018-07-10T01:02:40.398Z,101233.00
2018-07-10T01:07:44.188Z,101229.00
2018-07-10T01:12:47.981Z,101221.00
2018-07-10T01:17:52.316Z,101223.00
2018-07-10T01:22:56.348Z,101210.00
2018-07-10T01:28:00.144Z,101202.00
2018-07-10T01:33:03.962Z,101199.00
2018-07-10T01:38:07.838Z,101203.00
2018-07-10T01:43:11.648Z,101204.00
2018-07-10T01:48:15.676Z,101205.00
2018-07-10T01:53:19.695Z,101204.00
2018-07-10T01:58:23.740Z,101200.00
2018-07-10T02:03:28.186Z,101204.00
2018-07-10T02:08:31.996Z,101205.00
2018-07-10T02:13:36.042Z,101206.00
2018-07-10T02:18:40.200Z,101205.00
2018-07-10T02:23:45.311Z,101211.00
2018-07-10T02:28:50.038Z,101214.00
2018-07-10T02:33:54.159Z,101213.00
2018-07-10T02:38:59.780Z,101208.00
2018-07-10T02:44:04.947Z,101215.00
2018-07-10T02:49:15.433Z,101214.00
2018-07-10T02:54:21.850Z,101215.00
2018-07-10T02:59:35.520Z,101212.00
2018-07-10T03:04:41.298Z,101209.00
2018-07-10T03:09:45.996Z,101220.00
2018-07-10T03:14:49.778Z,101220.00
2018-07-10T03:19:53.816Z,101222.00
2018-07-10T03:24:57.597Z,101229.00
2018-07-10T03:30:02.098Z,101222.00
2018-07-10T03:35:06.173Z,101224.00
2018-07-10T03:40:10.610Z,101225.00
2018-07-10T03:45:14.402Z,101235.00
2018-07-10T03:50:18.435Z,101233.00
2018-07-10T03:55:22.218Z,101243.00
2018-07-10T04:00:26.573Z,101234.00
2018-07-10T04:05:30.599Z,101226.00
2018-07-10T04:10:35.581Z,101236.00
2018-07-10T04:15:40.182Z,101233.00
2018-07-10T04:20:57.953Z,101232.00
2018-07-10T04:26:03.013Z,101230.00
2018-07-10T04:31:15.486Z,101224.00
2018-07-10T04:36:20.209Z,101223.00
2018-07-10T04:41:28.592Z,101220.00
2018-07-10T04:46:39.344Z,101216.00
2018-07-10T04:51:50.189Z,101217.00
2018-07-10T04:57:03.518Z,101212.00
2018-07-10T05:02:07.731Z,101213.00
2018-07-10T05:07:12.076Z,101219.00
2018-07-10T05:12:15.883Z,101222.00
2018-07-10T05:17:19.699Z,101213.00
2018-07-10T05:22:23.493Z,101219.00
2018-07-10T05:27:27.293Z,101216.00
2018-07-10T05:32:31.921Z,101223.00
2018-07-10T05:37:37.181Z,101223.00
2018-07-10T05:42:46.904Z,101219.00
2018-07-10T05:47:53.467Z,101213.00
2018-07-10T05:52:57.246Z,101213.00
2018-07-10T05:58:01.982Z,101209.00
2018-07-10T06:03:06.012Z,101217.00
2018-07-10T06:08:11.063Z,101220.00
2018-07-10T06:13:15.473Z,101214.00
2018-07-10T06:18:19.512Z,101213.00
2018-07-10T06:23:25.770Z,101200.00
2018-07-10T06:28:29.582Z,101190.00
2018-07-10T06:33:33.374Z,101191.00
2018-07-10T06:38:41.302Z,101182.00
2018-07-10T06:43:52.369Z,101185.00
2018-07-10T06:48:58.833Z,101190.00
2018-07-10T06:54:03.420Z,101188.00
2018-07-10T06:59:07.209Z,101171.00
2018-07-10T07:04:10.998Z,101172.00
2018-07-10T07:09:14.781Z,101169.00
2018-07-10T07:14:18.634Z,101173.00
2018-07-10T07:19:22.657Z,101187.00
2018-07-10T07:24:26.437Z,101170.00
2018-07-10T07:29:30.229Z,101171.00
2018-07-10T07:34:34.038Z,101166.00
2018-07-10T07:39:37.812Z,101169.00
2018-07-10T07:44:41.959Z,101168.00
2018-07-10T07:49:45.978Z,101160.00
2018-07-10T07:54:50.632Z,101158.00
2018-07-10T07:59:54.670Z,101157.00
2018-07-10T08:04:58.472Z,101155.00
2018-07-10T08:10:02.757Z,101152.00
2018-07-10T08:15:06.534Z,101148.00
2018-07-10T08:20:10.318Z,101144.00
2018-07-10T08:25:14.092Z,101148.00
2018-07-10T08:30:17.941Z,101139.00
2018-07-10T08:35:21.766Z,101128.00
2018-07-10T08:40:25.598Z,101120.00
2018-07-10T08:45:29.397Z,101112.00
2018-07-10T08:50:33.445Z,101120.00
2018-07-10T08:55:37.451Z,101116.00
2018-07-10T09:00:41.269Z,101118.00
2018-07-10T09:05:45.045Z,101113.00
2018-07-10T09:10:48.838Z,101107.00
2018-07-10T09:15:52.617Z,101108.00
2018-07-10T09:20:56.393Z,101109.00
2018-07-10T09:26:01.159Z,101111.00
2018-07-10T09:31:05.751Z,101108.00
2018-07-10T09:36:09.775Z,101101.00
2018-07-10T09:41:13.805Z,101100.00
2018-07-10T09:46:17.833Z,101099.00
2018-07-10T09:51:21.875Z,101091.00
2018-07-10T09:56:25.666Z,101091.00
2018-07-10T10:01:33.676Z,101102.00
2018-07-10T10:06:37.458Z,101101.00
2018-07-10T10:11:41.253Z,101093.00
2018-07-10T10:16:45.055Z,101088.00
2018-07-10T10:21:48.875Z,101090.00
2018-07-10T10:26:52.650Z,101085.00
2018-07-10T10:31:56.523Z,101085.00
2018-07-10T10:37:00.575Z,101086.00
2018-07-10T10:42:04.610Z,101075.00
2018-07-10T10:47:08.710Z,101067.00
2018-07-10T10:52:12.509Z,101067.00
2018-07-10T10:57:16.765Z,101067.00
2018-07-10T11:02:21.452Z,101064.00
2018-07-10T11:07:25.203Z,101067.00
2018-07-10T11:12:30.942Z,101063.00
2018-07-10T11:17:40.946Z,101052.00
2018-07-10T11:22:49.697Z,101053.00
2018-07-10T11:28:03.241Z,101055.00
2018-07-10T11:33:08.173Z,101055.00
2018-07-10T11:38:13.375Z,101054.00
2018-07-10T11:43:17.415Z,101056.00
2018-07-10T11:48:21.241Z,101058.00
2018-07-10T11:53:25.483Z,101048.00
2018-07-10T11:58:29.386Z,101035.00
2018-07-10T12:03:37.690Z,101041.00
2018-07-10T12:08:41.525Z,101021.00
2018-07-10T12:13:45.491Z,101019.00
2018-07-10T12:18:49.282Z,101016.00
2018-07-10T12:23:53.399Z,101024.00
2018-07-10T12:28:57.193Z,101031.00
2018-07-10T12:34:01.009Z,101025.00
2018-07-10T12:39:05.478Z,101023.00
2018-07-10T12:44:09.275Z,101020.00
2018-07-10T12:49:13.055Z,101013.00
2018-07-10T12:54:17.173Z,101015.00
2018-07-10T12:59:21.229Z,101021.00
2018-07-10T13:04:25.299Z,101017.00
2018-07-10T13:09:29.072Z,101021.00
2018-07-10T13:14:33.328Z,101013.00
2018-07-10T13:19:38.526Z,101007.00
2018-07-10T13:24:42.347Z,101008.00
2018-07-10T13:29:46.126Z,101008.00
2018-07-10T13:34:50.114Z,101004.00
2018-07-10T13:39:54.282Z,101026.00
2018-07-10T13:44:58.067Z,101024.00
2018-07-10T13:50:02.098Z,101026.00
2018-07-10T13:55:05.906Z,101017.00
2018-07-10T14:00:09.717Z,101010.00
2018-07-10T14:05:13.749Z,101003.00
2018-07-10T14:10:17.550Z,100994.00
2018-07-10T14:15:21.341Z,100976.00
2018-07-10T14:20:25.778Z,100974.00
2018-07-10T14:25:29.806Z,100964.00
2018-07-10T14:30:33.642Z,100967.00
2018-07-10T14:35:37.683Z,100954.00
2018-07-10T14:40:46.296Z,100950.00
2018-07-10T14:45:54.115Z,100928.00
2018-07-10T14:50:58.927Z,100920.00
2018-07-10T14:56:02.781Z,100917.00
2018-07-10T15:01:06.569Z,100918.00
2018-07-10T15:06:10.639Z,100908.00
2018-07-10T15:11:14.672Z,100901.00
2018-07-10T15:16:18.569Z,100897.00
2018-07-10T15:21:23.679Z,100890.00
2018-07-10T15:26:27.466Z,100886.00
2018-07-10T15:31:31.310Z,100886.00
2018-07-10T15:36:35.183Z,100887.00
2018-07-10T15:41:38.965Z,100884.00
2018-07-10T15:46:42.762Z,100877.00
2018-07-10T15:51:46.806Z,100868.00
2018-07-10T15:56:50.878Z,100861.00
2018-07-10T16:01:54.672Z,100858.00
2018-07-10T16:06:58.466Z,100862.00
2018-07-10T16:12:04.994Z,100859.00
2018-07-10T16:17:23.054Z,100854.00
2018-07-10T16:22:27.799Z,100850.00
2018-07-10T16:27:34.357Z,100862.00
2018-07-10T16:32:40.857Z,100860.00
2018-07-10T16:37:44.994Z,100849.00
2018-07-10T16:42:54.178Z,100854.00
2018-07-10T16:48:20.999Z,100845.00
2018-07-10T16:53:30.974Z,100842.00
2018-07-10T16:58:38.554Z,100837.00
2018-07-10T17:03:42.382Z,100845.00
2018-07-10T17:08:46.186Z,100836.00
2018-07-10T17:13:49.973Z,100836.00
2018-07-10T17:18:53.774Z,100816.00
2018-07-10T17:24:00.643Z,100805.00
2018-07-10T17:29:09.015Z,100807.00
2018-07-10T17:34:12.781Z,100810.00
2018-07-10T17:39:17.475Z,100806.00
2018-07-10T17:44:21.486Z,100804.00
2018-07-10T17:49:25.303Z,100797.00
2018-07-10T17:54:29.095Z,100788.00
2018-07-10T17:59:32.981Z,100787.00
2018-07-10T18:04:36.849Z,100795.00
2018-07-10T18:09:40.718Z,100798.00
2018-07-10T18:14:44.782Z,100799.00
2018-07-10T18:19:49.220Z,100801.00
2018-07-10T18:24:53.058Z,100795.00
2018-07-10T18:29:56.857Z,100801.00
2018-07-10T18:35:00.681Z,100835.00
2018-07-10T18:40:04.707Z,100907.00
2018-07-10T18:45:08.753Z,100882.00
2018-07-10T18:50:12.792Z,100855.00
2018-07-10T18:55:16.598Z,100836.00
2018-07-10T19:00:29.347Z,100842.00
2018-07-10T19:05:36.617Z,100853.00
2018-07-10T19:10:41.649Z,100850.00
2018-07-10T19:15:46.344Z,100853.00
2018-07-10T19:20:57.318Z,100861.00
2018-07-10T19:26:01.102Z,100865.00
2018-07-10T19:31:12.730Z,100862.00
2018-07-10T19:36:16.550Z,100860.00
2018-07-10T19:41:21.041Z,100865.00
2018-07-10T19:46:24.892Z,100867.00
2018-07-10T19:51:29.204Z,100869.00
2018-07-10T19:56:33.001Z,100879.00
2018-07-10T20:01:46.198Z,100884.00
2018-07-10T20:07:08.558Z,100884.00
2018-07-10T20:12:13.665Z,100893.00
2018-07-10T20:17:18.365Z,100886.00
2018-07-10T20:22:42.100Z,100887.00
2018-07-10T20:27:51.269Z,100891.00
2018-07-10T20:33:12.873Z,100887.00
2018-07-10T20:38:17.309Z,100890.00
2018-07-10T20:43:21.637Z,100895.00
2018-07-10T20:48:40.267Z,100902.00
2018-07-10T20:53:51.236Z,100914.00
2018-07-10T20:59:05.819Z,100912.00
2018-07-10T21:04:34.971Z,100922.00
2018-07-10T21:09:53.583Z,100916.00
2018-07-10T21:15:05.600Z,100918.00
2018-07-10T21:20:16.714Z,100922.00
2018-07-10T21:25:25.341Z,100917.00
2018-07-10T21:30:46.389Z,100918.00
2018-07-10T21:35:58.140Z,100922.00
2018-07-10T21:41:16.993Z,100918.00
2018-07-10T21:46:37.108Z,100925.00
2018-07-10T21:51:46.038Z,100926.00
2018-07-10T21:56:49.886Z,100921.00
2018-07-10T22:01:59.639Z,100926.00
2018-07-10T22:07:05.322Z,100932.00
2018-07-10T22:12:10.975Z,100933.00
2018-07-10T22:17:16.514Z,100932.00
2018-07-10T22:22:22.294Z,100939.00
2018-07-10T22:27:26.539Z,100942.00
2018-07-10T22:32:37.479Z,100938.00
2018-07-10T22:37:41.281Z,100946.00
2018-07-10T22:42:45.157Z,100949.00
2018-07-10T22:47:49.566Z,100949.00
2018-07-10T22:53:00.802Z,100957.00
2018-07-10T22:58:06.392Z,100951.00
2018-07-10T23:03:19.543Z,100953.00
2018-07-10T23:08:35.697Z,100950.00
2018-07-10T23:13:41.308Z,100947.00
2018-07-10T23:18:46.579Z,100946.00
2018-07-10T23:23:50.729Z,100939.00
2018-07-10T23:28:55.130Z,100941.00
2018-07-10T23:34:17.211Z,100940.00
2018-07-10T23:39:24.331Z,100941.00
2018-07-10T23:44:31.709Z,100943.00
2018-07-10T23:49:35.954Z,100945.00
2018-07-10T23:54:39.742Z,100948.00
2018-07-10T23:59:43.547Z,100952.00
